Time;durP1;ratioP1;P1;durP2;ratioP2;P2;SDS_P1;SDS_P2;PMS_P1;PMS_P2;Temp;Humidity;BMP_temperature;BMP_pressure;BME280_temperature;BME280_humidity;BME280_pressure;Samples;Min_cycle;Max_cycle;Signal;HPM_P1;HPM_P2
2022/07/31 00:01:13;;;;;;;4.70;3.87;;;;;;;22.36;50.08;98991.63;6951830;28;20223;-78
2022/07/31 00:04:35;;;;;;;3.93;3.53;;;;;;;22.44;49.82;98991.91;6954831;28;20613;-78
2022/07/31 00:07:57;;;;;;;5.73;3.80;;;;;;;22.41;49.29;98986.09;6956779;28;20255;-78
2022/07/31 00:11:18;;;;;;;4.00;3.63;;;;;;;22.04;50.25;98988.31;6959254;28;20231;-79
2022/07/31 00:14:40;;;;;;;4.20;3.80;;;;;;;21.90;51.46;99001.75;6968518;28;20230;-79
2022/07/31 00:18:03;;;;;;;5.43;4.00;;;;;;;22.13;50.33;98971.00;6970649;28;20259;-79
2022/07/31 00:21:24;;;;;;;5.23;3.90;;;;;;;22.39;49.77;98982.81;6959739;28;20223;-79
2022/07/31 00:24:46;;;;;;;5.57;4.13;;;;;;;22.10;49.74;98962.50;6955183;28;20294;-78
2022/07/31 00:28:07;;;;;;;3.83;3.53;;;;;;;21.95;50.14;98971.56;6934676;28;20290;-78
2022/07/31 00:31:29;;;;;;;10.37;3.93;;;;;;;22.02;50.31;98979.53;6927568;28;20233;-79
2022/07/31 00:34:52;;;;;;;4.47;3.90;;;;;;;21.75;51.59;98988.03;6928033;28;20218;-79
2022/07/31 00:38:14;;;;;;;4.00;3.60;;;;;;;21.89;50.37;98988.31;6926917;28;20756;-78
2022/07/31 00:41:39;;;;;;;5.33;4.13;;;;;;;20.89;52.47;98992.63;6927877;28;20235;-79
2022/07/31 00:45:01;;;;;;;4.53;3.70;;;;;;;21.72;51.08;98993.25;6927686;28;20709;-79
2022/07/31 00:48:22;;;;;;;4.57;3.73;;;;;;;22.00;50.31;98985.28;6930961;28;20214;-78
2022/07/31 00:51:45;;;;;;;6.20;3.30;;;;;;;21.90;50.17;98968.00;6953969;28;20794;-78
2022/07/31 00:55:08;;;;;;;3.47;3.17;;;;;;;22.04;50.41;98988.31;6972762;28;20207;-80
2022/07/31 00:58:29;;;;;;;5.50;4.30;;;;;;;21.38;51.86;98981.03;6964864;28;20294;-79
2022/07/31 01:01:51;;;;;;;4.17;3.77;;;;;;;21.59;52.34;98991.00;6954673;28;20278;-78
2022/07/31 01:05:12;;;;;;;6.33;4.20;;;;;;;21.29;52.84;98996.38;6953921;28;20233;-79
2022/07/31 01:08:35;;;;;;;4.47;3.87;;;;;;;21.34;52.95;98985.41;6953433;28;20246;-79
2022/07/31 01:12:00;;;;;;;4.60;3.80;;;;;;;22.11;50.52;98989.69;6953168;28;20313;-78
2022/07/31 01:15:23;;;;;;;4.30;3.90;;;;;;;21.97;51.20;98991.34;6953419;28;20603;-79
2022/07/31 01:18:45;;;;;;;4.10;3.70;;;;;;;22.09;50.69;99002.88;6953403;28;20608;-79
2022/07/31 01:22:13;;;;;;;6.70;3.87;;;;;;;22.10;50.67;98989.97;6953350;28;20316;-79
2022/07/31 01:25:42;;;;;;;6.87;3.80;;;;;;;22.13;50.20;98994.91;6953845;28;20207;-79
2022/07/31 01:29:12;;;;;;;5.83;4.40;;;;;;;21.22;52.83;98984.03;6952257;28;20243;-79
2022/07/31 01:32:36;;;;;;;4.97;3.80;;;;;;;20.86;54.32;98968.50;6953586;28;20238;-79
2022/07/31 01:36:01;;;;;;;4.53;4.13;;;;;;;21.58;52.91;98986.56;6952644;28;20215;-79
2022/07/31 01:39:23;;;;;;;5.67;3.87;;;;;;;21.60;52.25;98981.66;6952528;28;20190;-79
2022/07/31 01:42:58;;;;;;;4.83;4.10;;;;;;;21.69;52.37;98989.13;6953788;28;20261;-80
2022/07/31 01:46:22;;;;;;;5.83;3.93;;;;;;;21.80;52.08;98985.28;6952410;28;20204;-79
2022/07/31 01:49:44;;;;;;;4.27;3.97;;;;;;;21.66;52.21;98984.13;6951165;28;20197;-79
2022/07/31 01:53:07;;;;;;;4.50;4.20;;;;;;;21.33;52.70;98987.34;6951887;28;20230;-79
2022/07/31 01:56:29;;;;;;;5.80;4.10;;;;;;;21.55;52.01;98952.25;6952096;28;20565;-79
2022/07/31 01:59:53;;;;;;;4.73;4.00;;;;;;;21.53;52.28;98981.09;6951603;28;20221;-81
2022/07/31 02:03:17;;;;;;;4.13;3.83;;;;;;;21.37;52.91;98977.47;6951766;28;20250;-79
2022/07/31 02:06:39;;;;;;;5.50;4.20;;;;;;;21.69;52.48;98986.38;6951645;28;20261;-79
2022/07/31 02:10:01;;;;;;;4.70;4.17;;;;;;;21.27;53.49;98977.47;6950733;28;20208;-79
2022/07/31 02:13:23;;;;;;;5.50;4.07;;;;;;;21.38;52.92;98970.06;6952538;28;20262;-79
2022/07/31 02:16:48;;;;;;;5.40;4.23;;;;;;;21.55;52.28;98974.22;6952694;28;20385;-79
2022/07/31 02:20:12;;;;;;;4.97;4.57;;;;;;;20.73;54.61;98978.00;6951889;28;20192;-79
2022/07/31 02:23:34;;;;;;;4.10;3.80;;;;;;;21.08;54.08;98984.50;6951469;28;20250;-79
2022/07/31 02:26:57;;;;;;;4.80;4.37;;;;;;;20.81;54.88;98977.50;6946992;28;20295;-79
2022/07/31 02:30:19;;;;;;;6.47;4.50;;;;;;;20.78;54.77;98967.88;6950682;28;20774;-79
2022/07/31 02:33:43;;;;;;;4.87;4.30;;;;;;;20.73;55.66;98971.69;6950750;28;20251;-78
2022/07/31 02:37:06;;;;;;;4.93;4.40;;;;;;;20.94;54.67;98977.03;6949024;28;20223;-78
2022/07/31 02:40:28;;;;;;;5.03;4.40;;;;;;;20.69;55.34;98971.41;6949572;28;20214;-78
2022/07/31 02:43:50;;;;;;;4.80;4.40;;;;;;;20.77;54.84;98979.94;6954804;28;20363;-78
2022/07/31 02:47:12;;;;;;;4.73;4.37;;;;;;;20.93;54.52;98969.09;6952162;28;20208;-78
2022/07/31 02:50:34;;;;;;;4.80;4.50;;;;;;;20.51;54.67;98924.47;6946793;28;20272;-78
2022/07/31 02:53:57;;;;;;;5.10;4.50;;;;;;;20.27;56.51;98964.31;6947253;28;20236;-78
2022/07/31 02:57:18;;;;;;;4.97;4.57;;;;;;;20.82;54.94;98968.16;6947674;28;20207;-78
2022/07/31 03:00:40;;;;;;;5.13;4.63;;;;;;;20.85;54.80;98964.91;6947403;28;20203;-78
2022/07/31 03:04:02;;;;;;;5.57;4.60;;;;;;;20.78;54.72;98969.81;6947587;28;20325;-78
2022/07/31 03:07:23;;;;;;;4.97;4.37;;;;;;;20.83;55.07;98969.00;6947275;28;20687;-78
2022/07/31 03:10:46;;;;;;;4.57;4.20;;;;;;;20.72;54.39;98927.03;6947146;28;20301;-78
2022/07/31 03:14:09;;;;;;;5.10;4.60;;;;;;;20.62;54.22;98959.03;6966516;28;20217;-78
2022/07/31 03:17:31;;;;;;;4.60;4.27;;;;;;;20.88;54.54;98971.78;6962755;28;20816;-78
2022/07/31 03:20:53;;;;;;;6.73;4.77;;;;;;;20.36;54.89;98935.31;6946910;28;20230;-78
2022/07/31 03:24:15;;;;;;;4.40;4.10;;;;;;;20.83;54.76;98967.09;6947318;28;20306;-78
2022/07/31 03:27:38;;;;;;;4.93;4.60;;;;;;;20.74;55.00;98965.94;6945607;28;20305;-78
2022/07/31 03:31:00;;;;;;;4.90;4.50;;;;;;;20.86;54.78;98968.50;6947720;28;20205;-78
2022/07/31 03:34:21;;;;;;;4.87;4.47;;;;;;;20.92;54.20;98968.25;6948343;28;20693;-78
2022/07/31 03:37:43;;;;;;;5.23;4.83;;;;;;;20.36;55.59;98968.19;6949639;28;20761;-78
2022/07/31 03:41:05;;;;;;;5.87;4.80;;;;;;;20.17;56.18;98967.78;6974873;28;20198;-79
2022/07/31 03:44:28;;;;;;;5.47;4.60;;;;;;;19.98;56.87;98973.91;6971879;28;20297;-80
2022/07/31 03:47:50;;;;;;;5.60;5.00;;;;;;;20.12;56.69;98969.66;6957064;28;20206;-80
2022/07/31 03:51:12;;;;;;;6.67;4.80;;;;;;;20.58;55.38;98961.47;6955980;28;20611;-79
2022/07/31 03:54:33;;;;;;;4.83;4.43;;;;;;;20.50;55.32;98972.94;6957014;28;20208;-79
2022/07/31 03:57:55;;;;;;;6.87;4.53;;;;;;;20.56;55.43;98965.56;6956479;28;20207;-79
2022/07/31 04:01:18;;;;;;;6.17;5.20;;;;;;;20.63;54.71;98980.69;6956593;28;20231;-79
2022/07/31 04:04:39;;;;;;;5.47;4.87;;;;;;;20.76;54.13;98982.94;6956798;28;20228;-79
2022/07/31 04:08:01;;;;;;;4.87;4.47;;;;;;;20.49;54.60;98982.25;6957545;28;20217;-79
2022/07/31 04:11:22;;;;;;;6.23;4.80;;;;;;;20.22;55.84;98958.78;6960944;28;20236;-79
2022/07/31 04:14:44;;;;;;;6.10;4.93;;;;;;;20.06;56.84;98979.75;6968833;28;20655;-80
2022/07/31 04:18:07;;;;;;;5.40;4.50;;;;;;;20.44;56.01;98986.84;6964433;28;20211;-80
2022/07/31 04:21:28;;;;;;;6.33;4.00;;;;;;;20.54;55.16;98975.97;6952643;28;20231;-80
2022/07/31 04:24:50;;;;;;;6.60;4.37;;;;;;;20.50;55.07;98980.31;6952543;28;20278;-79
2022/07/31 04:28:11;;;;;;;5.40;4.70;;;;;;;20.13;55.64;98972.13;6950376;28;20203;-80
2022/07/31 04:31:33;;;;;;;4.50;4.10;;;;;;;20.52;55.31;98978.16;6951920;28;20228;-79
2022/07/31 04:34:56;;;;;;;5.10;4.60;;;;;;;20.38;54.59;98917.53;6925455;28;20222;-79
2022/07/31 04:38:18;;;;;;;7.67;4.30;;;;;;;20.63;55.07;98982.63;6924108;28;20219;-79
2022/07/31 04:41:39;;;;;;;4.93;4.43;;;;;;;20.21;55.61;98943.41;6935022;28;20261;-79
2022/07/31 04:45:01;;;;;;;4.73;4.33;;;;;;;20.38;55.61;98966.84;6952347;28;20231;-79
2022/07/31 04:48:23;;;;;;;8.13;4.43;;;;;;;20.42;56.05;98989.03;6947806;28;20246;-79
2022/07/31 04:51:45;;;;;;;4.70;4.30;;;;;;;20.56;55.79;98993.78;6923675;28;20649;-79
2022/07/31 04:55:08;;;;;;;4.53;4.10;;;;;;;20.49;56.01;98995.94;6924296;28;20215;-79
2022/07/31 04:58:29;;;;;;;5.50;4.37;;;;;;;20.76;55.49;98988.41;6923805;28;20304;-79
2022/07/31 05:01:51;;;;;;;5.03;4.07;;;;;;;20.79;55.27;99004.34;6924208;28;20266;-79
2022/07/31 05:05:13;;;;;;;5.30;4.40;;;;;;;21.06;54.67;98999.59;6924558;28;20230;-79
2022/07/31 05:08:36;;;;;;;4.60;4.20;;;;;;;21.28;54.20;99003.78;6923764;28;20526;-79
2022/07/31 05:11:57;;;;;;;4.30;3.90;;;;;;;21.59;53.66;98986.31;6923785;28;20236;-80
2022/07/31 05:15:19;;;;;;;4.53;4.00;;;;;;;22.03;52.22;98989.41;6923707;28;20236;-79
2022/07/31 05:18:40;;;;;;;4.13;3.73;;;;;;;22.29;51.54;99000.13;6923193;28;20208;-79
2022/07/31 05:22:03;;;;;;;3.83;3.53;;;;;;;22.91;50.72;98992.34;6923997;28;20249;-79
2022/07/31 05:25:26;;;;;;;3.83;3.53;;;;;;;22.95;49.57;98971.44;6923585;28;20228;-79
2022/07/31 05:28:48;;;;;;;3.73;3.43;;;;;;;23.56;47.83;98970.06;6923157;28;20772;-79
2022/07/31 05:32:10;;;;;;;4.40;4.00;;;;;;;24.10;46.51;98964.47;6923854;28;20618;-79
2022/07/31 05:35:31;;;;;;;4.03;3.20;;;;;;;24.05;46.43;98967.25;6923618;28;20241;-79
2022/07/31 05:38:53;;;;;;;3.40;3.10;;;;;;;24.30;45.96;98961.53;6923307;28;20261;-79
2022/07/31 05:42:16;;;;;;;3.93;3.47;;;;;;;23.90;47.00;98973.69;6924067;28;20582;-79
2022/07/31 05:45:38;;;;;;;3.93;3.63;;;;;;;24.06;47.50;98983.50;6924052;28;20231;-79
2022/07/31 05:49:00;;;;;;;3.60;3.30;;;;;;;24.40;46.30;98972.44;6923741;28;20294;-79
2022/07/31 05:52:21;;;;;;;3.57;3.27;;;;;;;24.74;44.54;98984.28;6923724;28;20729;-79
2022/07/31 05:55:44;;;;;;;4.83;3.00;;;;;;;24.68;44.04;98942.16;6924172;28;20687;-79
2022/07/31 05:59:08;;;;;;;3.03;2.60;;;;;;;25.08;42.98;98983.03;6923577;28;20295;-79
2022/07/31 06:02:29;;;;;;;3.47;2.63;;;;;;;25.21;43.01;98982.34;6924051;28;20224;-79
2022/07/31 06:05:52;;;;;;;2.70;2.30;;;;;;;25.17;41.17;98934.38;6924784;28;20230;-79
2022/07/31 06:09:14;;;;;;;2.60;2.40;;;;;;;25.61;40.93;98978.25;6923823;28;20239;-79
2022/07/31 06:12:35;;;;;;;2.73;2.53;;;;;;;25.62;40.77;98986.25;6924679;28;20295;-79
2022/07/31 06:15:58;;;;;;;2.60;2.40;;;;;;;25.69;40.88;98977.56;6925388;28;20219;-80
2022/07/31 06:19:20;;;;;;;4.77;2.83;;;;;;;25.73;40.42;98984.94;6925234;28;20573;-79
2022/07/31 06:22:42;;;;;;;3.53;2.70;;;;;;;25.55;40.06;98976.69;6949044;28;20805;-79
2022/07/31 06:26:04;;;;;;;2.50;2.30;;;;;;;25.73;39.73;98996.00;6953404;28;20284;-79
2022/07/31 06:29:26;;;;;;;2.90;2.30;;;;;;;25.73;40.07;99000.72;6939838;28;20230;-79
2022/07/31 06:32:49;;;;;;;2.40;2.20;;;;;;;26.05;39.51;99001.63;6926479;28;20237;-79
2022/07/31 06:36:11;;;;;;;2.87;2.57;;;;;;;26.20;39.46;98995.03;6926718;28;20204;-79
2022/07/31 06:39:32;;;;;;;2.77;2.40;;;;;;;26.15;38.97;98987.66;6926673;28;20203;-79
2022/07/31 06:42:54;;;;;;;4.13;2.30;;;;;;;26.24;39.31;98996.09;6931577;28;20227;-79
2022/07/31 06:46:16;;;;;;;2.80;2.40;;;;;;;26.16;39.05;99010.56;6947676;28;20223;-80
2022/07/31 06:49:39;;;;;;;2.60;2.40;;;;;;;26.00;39.47;99015.53;6945961;28;20211;-79
2022/07/31 06:53:01;;;;;;;2.87;2.60;;;;;;;26.47;39.63;99006.19;6922969;28;20315;-79
2022/07/31 06:56:23;;;;;;;3.30;2.70;;;;;;;26.82;38.23;99006.41;6921852;28;20237;-81
2022/07/31 06:59:44;;;;;;;2.40;2.20;;;;;;;26.88;38.50;99016.25;6946615;28;20208;-80
2022/07/31 07:03:06;;;;;;;2.50;2.30;;;;;;;26.28;39.50;99006.22;6949461;28;20236;-79
2022/07/31 07:06:29;;;;;;;5.70;2.57;;;;;;;26.71;38.74;98998.59;6949763;28;20265;-78
2022/07/31 07:09:50;;;;;;;4.03;2.77;;;;;;;26.60;39.09;99008.22;6949266;28;20576;-79
2022/07/31 07:13:12;;;;;;;6.13;2.63;;;;;;;26.87;38.41;98986.94;6948472;28;20364;-79
2022/07/31 07:16:33;;;;;;;3.47;2.60;;;;;;;27.04;37.61;98980.78;6948752;28;20289;-79
2022/07/31 07:19:55;;;;;;;4.67;2.87;;;;;;;27.11;37.83;98975.66;6948452;28;20207;-79
2022/07/31 07:23:18;;;;;;;3.33;2.50;;;;;;;27.42;36.85;99001.63;6948562;28;20226;-79
2022/07/31 07:26:40;;;;;;;3.57;2.80;;;;;;;27.42;37.57;98991.38;6949512;28;20393;-79
2022/07/31 07:30:01;;;;;;;2.73;2.40;;;;;;;27.55;37.19;98976.66;6949982;28;20207;-80
2022/07/31 07:33:23;;;;;;;2.90;2.60;;;;;;;27.45;36.91;98982.44;6949512;28;20856;-79
2022/07/31 07:36:44;;;;;;;3.17;2.70;;;;;;;27.51;37.01;98983.97;6949553;28;20687;-79
2022/07/31 07:40:09;;;;;;;4.43;2.80;;;;;;;27.59;37.24;98983.22;6949325;28;20202;-79
2022/07/31 07:43:31;;;;;;;4.67;2.60;;;;;;;27.76;36.01;98997.25;6951218;28;20227;-80
2022/07/31 07:46:52;;;;;;;2.67;2.47;;;;;;;27.72;36.09;98957.44;6951766;28;20234;-79
2022/07/31 07:50:14;;;;;;;3.93;2.60;;;;;;;27.97;36.74;98989.31;6949616;28;20204;-79
2022/07/31 07:53:36;;;;;;;3.63;2.50;;;;;;;28.11;36.58;98990.06;6952066;28;20301;-80
2022/07/31 07:56:59;;;;;;;3.00;2.40;;;;;;;28.16;36.70;98988.03;6950804;28;20206;-80
2022/07/31 08:00:21;;;;;;;3.73;2.40;;;;;;;28.16;36.20;98989.97;6950714;28;20265;-79
2022/07/31 08:03:42;;;;;;;2.80;2.43;;;;;;;28.29;36.46;98972.44;6952160;28;20247;-80
2022/07/31 08:07:04;;;;;;;2.67;2.40;;;;;;;28.21;35.95;98987.91;6952130;28;20270;-80
2022/07/31 08:10:25;;;;;;;2.77;2.57;;;;;;;28.59;35.59;98986.38;6955846;28;20209;-79
2022/07/31 08:13:48;;;;;;;5.70;3.10;;;;;;;28.74;35.31;98971.28;6963007;28;20271;-79
2022/07/31 08:17:11;;;;;;;3.67;3.00;;;;;;;28.97;35.21;98978.44;6961065;28;20262;-79
2022/07/31 08:20:33;;;;;;;5.10;2.53;;;;;;;28.94;34.87;98942.94;6949782;28;20207;-79
2022/07/31 08:23:54;;;;;;;4.53;2.50;;;;;;;29.25;34.58;98977.88;6937438;28;20256;-79
2022/07/31 08:27:26;;;;;;;2.30;2.20;;;;;;;29.21;34.02;98942.75;6929128;28;20326;-79
2022/07/31 08:30:49;;;;;;;4.77;2.23;;;;;;;29.18;34.94;98974.75;6930229;28;20202;-79
2022/07/31 08:34:11;;;;;;;4.50;2.40;;;;;;;29.32;34.34;98972.66;6927914;28;20254;-79
2022/07/31 08:37:33;;;;;;;2.47;2.17;;;;;;;29.64;33.49;98968.69;6948913;28;20213;-80
2022/07/31 08:40:54;;;;;;;5.27;2.63;;;;;;;29.91;33.23;98977.53;6955114;28;20239;-79
2022/07/31 08:44:16;;;;;;;2.90;2.30;;;;;;;30.15;32.43;98977.91;6955375;28;20213;-79
2022/07/31 08:47:41;;;;;;;3.80;2.83;;;;;;;30.37;32.57;98958.22;6952534;28;20317;-80
2022/07/31 08:51:04;;;;;;;3.27;2.73;;;;;;;30.43;32.68;98976.38;6946569;28;20219;-80
2022/07/31 08:54:27;;;;;;;3.07;2.60;;;;;;;30.76;32.42;98971.09;6954121;28;20692;-79
2022/07/31 08:57:49;;;;;;;3.90;2.40;;;;;;;30.98;31.21;98962.50;6956089;28;20288;-80
2022/07/31 09:01:11;;;;;;;2.90;2.70;;;;;;;30.92;31.00;98961.06;6954184;28;20208;-79
2022/07/31 09:04:34;;;;;;;2.97;2.23;;;;;;;31.14;30.33;98944.88;6955039;28;20249;-79
2022/07/31 09:07:56;;;;;;;3.97;2.20;;;;;;;32.42;29.04;98964.34;6952900;28;20256;-79
2022/07/31 09:11:18;;;;;;;2.63;2.30;;;;;;;32.70;26.15;98934.66;6952287;28;20228;-79
2022/07/31 09:14:47;;;;;;;3.90;2.33;;;;;;;32.91;24.33;98954.94;6945231;28;20269;-79
2022/07/31 09:18:17;;;;;;;2.33;2.17;;;;;;;32.88;25.38;98963.22;6949707;28;20225;-79
2022/07/31 09:21:41;;;;;;;3.43;2.10;;;;;;;33.06;25.10;98926.34;6953045;28;20223;-79
2022/07/31 09:25:11;;;;;;;5.50;2.13;;;;;;;32.80;26.36;98941.78;6952398;28;20206;-79
2022/07/31 09:28:34;;;;;;;2.40;2.10;;;;;;;33.28;25.12;98944.66;6952722;28;20737;-79
2022/07/31 09:32:07;;;;;;;4.47;2.33;;;;;;;32.91;24.57;98935.38;6953730;28;20290;-79
2022/07/31 09:35:29;;;;;;;2.43;2.10;;;;;;;34.15;24.00;98935.41;6952841;28;20580;-81
2022/07/31 09:38:52;;;;;;;2.37;1.90;;;;;;;34.59;23.13;98935.09;6958757;28;20211;-79
2022/07/31 09:42:13;;;;;;;2.97;2.30;;;;;;;33.87;24.12;98929.78;6962091;28;20223;-80
2022/07/31 09:45:35;;;;;;;2.20;2.00;;;;;;;33.88;22.33;98939.81;6964670;28;20227;-80
2022/07/31 09:48:56;;;;;;;2.40;2.07;;;;;;;33.17;22.48;98935.88;6963431;28;20242;-80
2022/07/31 09:52:19;;;;;;;2.63;1.90;;;;;;;32.89;22.58;98936.94;6953134;28;20737;-79
2022/07/31 09:55:50;;;;;;;1.90;1.80;;;;;;;32.91;22.39;98932.59;6949419;28;20290;-79
2022/07/31 09:59:12;;;;;;;2.10;1.90;;;;;;;34.34;21.33;98922.41;6948837;28;20208;-78
2022/07/31 10:02:35;;;;;;;2.13;1.73;;;;;;;33.37;21.51;98914.59;6951121;28;20288;-79
2022/07/31 10:05:57;;;;;;;2.23;1.77;;;;;;;33.53;22.59;98910.72;6953168;28;20230;-80
2022/07/31 10:09:20;;;;;;;2.10;1.90;;;;;;;33.27;22.61;98912.28;6949728;28;20253;-79
2022/07/31 10:12:48;;;;;;;3.03;2.17;;;;;;;33.40;22.62;98916.69;6965013;28;20223;-80
2022/07/31 10:16:10;;;;;;;2.77;2.00;;;;;;;32.71;23.51;98908.34;6968843;28;20190;-80
2022/07/31 10:19:32;;;;;;;3.57;2.07;;;;;;;33.38;23.54;98902.25;6949029;28;20286;-80
2022/07/31 10:22:59;;;;;;;2.10;1.90;;;;;;;33.61;22.64;98906.16;6949961;28;20222;-81
2022/07/31 10:26:21;;;;;;;2.63;2.10;;;;;;;33.58;22.73;98893.69;6951124;28;20262;-80
2022/07/31 10:29:44;;;;;;;2.83;2.00;;;;;;;34.47;22.30;98887.53;6948275;28;20293;-80
2022/07/31 10:33:05;;;;;;;1.70;1.60;;;;;;;34.12;22.08;98892.13;6924106;28;20231;-79
2022/07/31 10:36:29;;;;;;;2.70;1.90;;;;;;;34.51;22.26;98896.88;6945764;28;20211;-85
2022/07/31 10:39:57;;;;;;;2.33;1.80;;;;;;;35.42;21.33;98873.19;6951976;28;20842;-80
2022/07/31 10:43:20;;;;;;;1.93;1.83;;;;;;;36.15;21.11;98886.03;6950242;28;20237;-78
2022/07/31 10:46:43;;;;;;;2.00;1.80;;;;;;;35.99;20.75;98876.88;6949963;28;20234;-77
2022/07/31 10:50:06;;;;;;;5.17;2.50;;;;;;;35.97;21.28;98876.41;6948854;28;20234;-80
2022/07/31 10:53:27;;;;;;;7.57;6.80;;;;;;;35.95;21.48;98873.16;6947505;28;20220;-78
2022/07/31 10:56:49;;;;;;;3.97;2.10;;;;;;;35.53;21.26;98868.59;6944965;28;20210;-79
2022/07/31 11:00:13;;;;;;;3.13;1.70;;;;;;;35.06;22.03;98870.66;6948622;28;20230;-78
2022/07/31 11:03:43;;;;;;;2.27;2.07;;;;;;;33.73;23.13;98859.38;6948998;28;20277;-78
2022/07/31 11:07:14;;;;;;;3.83;1.80;;;;;;;34.64;22.59;98856.38;6948439;28;20688;-78
2022/07/31 11:10:36;;;;;;;3.70;1.80;;;;;;;35.62;22.17;98858.81;6950707;28;20231;-79
2022/07/31 11:13:59;;;;;;;3.70;2.00;;;;;;;36.60;19.97;98848.78;6948380;28;20305;-80
2022/07/31 11:17:30;;;;;;;2.47;1.97;;;;;;;35.64;21.52;98835.97;6947338;28;20235;-78
2022/07/31 11:21:00;;;;;;;2.07;1.70;;;;;;;35.63;21.35;98815.53;6947140;28;20242;-77
2022/07/31 11:24:23;;;;;;;3.03;1.93;;;;;;;36.07;21.32;98839.31;6947805;28;20247;-77
2022/07/31 11:27:44;;;;;;;4.13;1.90;;;;;;;35.50;22.01;98842.09;6946599;28;20238;-77
2022/07/31 11:31:08;;;;;;;3.10;1.90;;;;;;;35.88;20.85;98846.94;6947688;28;20545;-77
2022/07/31 11:34:29;;;;;;;1.90;1.70;;;;;;;36.13;20.59;98839.84;6947174;28;20217;-77
2022/07/31 11:37:52;;;;;;;4.27;2.10;;;;;;;35.45;21.06;98835.97;6946783;28;20203;-77
2022/07/31 11:41:14;;;;;;;4.90;2.60;;;;;;;35.01;22.31;98835.31;6947659;28;20685;-77
2022/07/31 11:44:36;;;;;;;2.47;2.10;;;;;;;35.13;21.79;98814.78;6947269;28;20235;-77
2022/07/31 11:47:57;;;;;;;1.83;1.70;;;;;;;35.89;21.65;98821.31;6946309;28;20316;-77
2022/07/31 11:51:20;;;;;;;3.10;1.97;;;;;;;35.73;21.68;98812.16;6945485;28;20601;-77
2022/07/31 11:54:43;;;;;;;1.97;1.80;;;;;;;36.07;20.92;98811.25;6947457;28;20231;-78
2022/07/31 11:58:08;;;;;;;2.47;1.90;;;;;;;36.69;19.71;98805.22;6946821;28;20215;-77
2022/07/31 12:01:30;;;;;;;2.90;1.93;;;;;;;36.51;20.83;98792.84;6951806;28;20269;-78
2022/07/31 12:04:51;;;;;;;2.93;2.17;;;;;;;36.25;20.99;98804.00;6951698;28;20199;-78
2022/07/31 12:08:13;;;;;;;2.67;1.93;;;;;;;36.18;20.00;98789.00;6951782;28;20227;-78
2022/07/31 12:11:36;;;;;;;2.60;1.70;;;;;;;34.78;22.10;98805.53;6952861;28;20364;-77
2022/07/31 12:14:58;;;;;;;5.00;2.00;;;;;;;34.90;22.52;98797.81;6951349;28;20992;-78
2022/07/31 12:18:19;;;;;;;3.17;2.00;;;;;;;35.44;21.39;98776.25;6923913;28;20667;-77
2022/07/31 12:21:42;;;;;;;2.13;1.93;;;;;;;35.69;21.96;98783.19;6944593;28;20246;-77
2022/07/31 12:25:08;;;;;;;2.20;2.00;;;;;;;35.81;21.66;98791.50;6951656;28;20306;-77
2022/07/31 12:28:31;;;;;;;2.20;2.00;;;;;;;35.98;20.92;98785.41;6951078;28;20288;-77
2022/07/31 12:31:54;;;;;;;4.10;2.20;;;;;;;37.01;20.45;98781.22;6954144;28;20211;-77
2022/07/31 12:35:15;;;;;;;5.23;2.20;;;;;;;36.40;20.46;98760.94;6953071;28;20202;-77
2022/07/31 12:38:37;;;;;;;2.13;1.93;;;;;;;35.90;20.75;98772.41;6951443;28;20227;-77
2022/07/31 12:41:58;;;;;;;2.73;1.90;;;;;;;36.30;21.13;98763.53;6950900;28;20241;-77
2022/07/31 12:45:35;;;;;;;2.10;1.90;;;;;;;36.28;21.02;98766.75;6950746;28;20207;-77
2022/07/31 12:48:57;;;;;;;2.87;2.30;;;;;;;35.14;22.41;98768.75;6950374;28;20210;-77
2022/07/31 12:52:19;;;;;;;3.17;2.10;;;;;;;35.97;21.20;98766.91;6949552;28;20239;-77
2022/07/31 12:55:41;;;;;;;2.60;1.80;;;;;;;36.39;21.03;98755.69;6951812;28;20187;-78
2022/07/31 12:59:02;;;;;;;2.57;2.00;;;;;;;33.56;23.43;98755.38;6950684;28;20576;-77
2022/07/31 13:02:25;;;;;;;2.03;1.90;;;;;;;34.81;22.69;98745.94;6950439;28;20254;-78
2022/07/31 13:05:47;;;;;;;1.90;1.80;;;;;;;35.55;22.19;98732.41;6950801;28;20652;-77
2022/07/31 13:09:08;;;;;;;2.13;1.93;;;;;;;34.61;22.73;98735.84;6950211;28;20218;-77
2022/07/31 13:12:30;;;;;;;2.80;2.10;;;;;;;35.14;23.05;98730.28;6949667;28;20254;-77
2022/07/31 13:15:52;;;;;;;3.13;1.90;;;;;;;34.90;22.08;98730.56;6950565;28;20300;-77
2022/07/31 13:19:15;;;;;;;4.30;1.80;;;;;;;35.65;21.74;98733.78;6949852;28;20830;-77
2022/07/31 13:22:37;;;;;;;5.73;1.87;;;;;;;36.20;21.36;98733.28;6950427;28;20219;-77
2022/07/31 13:25:59;;;;;;;3.03;1.90;;;;;;;36.24;20.99;98723.72;6952140;28;20231;-78
2022/07/31 13:29:20;;;;;;;3.03;1.70;;;;;;;36.00;21.36;98712.03;6949699;28;20250;-77
2022/07/31 13:32:42;;;;;;;3.20;2.17;;;;;;;35.81;21.18;98712.09;6934669;28;20232;-77
2022/07/31 13:36:05;;;;;;;2.10;1.70;;;;;;;34.76;22.82;98699.41;6943611;28;20212;-77
2022/07/31 13:39:27;;;;;;;1.70;1.60;;;;;;;35.11;22.29;98693.78;6949406;28;20294;-77
2022/07/31 13:42:48;;;;;;;2.23;1.73;;;;;;;35.83;21.05;98662.03;6950001;28;20313;-76
2022/07/31 13:46:10;;;;;;;2.30;2.07;;;;;;;35.36;21.89;98653.88;6948934;28;20235;-76
2022/07/31 13:49:31;;;;;;;2.23;2.00;;;;;;;36.82;20.36;98682.13;6948433;28;20214;-77
2022/07/31 13:52:56;;;;;;;2.70;1.67;;;;;;;37.23;19.55;98670.66;6948417;28;20231;-77
2022/07/31 13:56:18;;;;;;;3.80;1.90;;;;;;;37.03;20.61;98677.59;6949244;28;20676;-77
2022/07/31 13:59:40;;;;;;;2.47;1.90;;;;;;;35.92;21.08;98669.00;6949613;28;20300;-77
2022/07/31 14:03:01;;;;;;;2.33;1.70;;;;;;;35.05;22.48;98670.84;6949341;28;20298;-77
2022/07/31 14:06:23;;;;;;;3.63;1.77;;;;;;;35.57;22.18;98625.44;6948865;28;20255;-77
2022/07/31 14:09:45;;;;;;;2.50;1.90;;;;;;;36.03;21.37;98672.00;6948829;28;20283;-77
2022/07/31 14:13:07;;;;;;;2.53;1.70;;;;;;;36.93;20.73;98666.22;6948734;28;20234;-77
2022/07/31 14:16:29;;;;;;;3.20;1.90;;;;;;;35.50;22.39;98656.94;6950007;28;20199;-78
2022/07/31 14:19:50;;;;;;;3.20;2.20;;;;;;;35.58;22.44;98666.31;6951907;28;20199;-79
2022/07/31 14:23:12;;;;;;;2.07;1.80;;;;;;;35.15;22.92;98658.22;6948410;28;20377;-77
2022/07/31 14:26:35;;;;;;;3.67;2.07;;;;;;;34.63;23.54;98657.84;6927985;28;20229;-77
2022/07/31 14:29:57;;;;;;;3.03;1.90;;;;;;;35.84;22.86;98653.22;6927459;28;20210;-77
2022/07/31 14:33:18;;;;;;;2.20;1.80;;;;;;;36.40;21.56;98647.75;6947750;28;20231;-77
2022/07/31 14:36:40;;;;;;;1.90;1.73;;;;;;;36.44;21.37;98643.78;6947747;28;20223;-77
2022/07/31 14:40:01;;;;;;;2.43;2.00;;;;;;;36.73;20.71;98633.81;6947601;28;20238;-77
2022/07/31 14:43:24;;;;;;;2.40;1.97;;;;;;;36.77;20.58;98643.91;6940564;28;20223;-77
2022/07/31 14:46:46;;;;;;;2.73;2.00;;;;;;;36.35;21.05;98636.84;6920455;28;20663;-77
2022/07/31 14:50:08;;;;;;;1.90;1.80;;;;;;;37.16;20.32;98600.28;6919673;28;20290;-77
2022/07/31 14:53:31;;;;;;;2.03;1.70;;;;;;;37.25;21.05;98637.34;6920471;28;20228;-76
2022/07/31 14:56:52;;;;;;;2.00;1.90;;;;;;;36.36;21.46;98630.06;6945512;28;20200;-77
2022/07/31 15:00:15;;;;;;;3.67;1.80;;;;;;;35.94;22.27;98618.09;6925609;28;20204;-77
2022/07/31 15:03:37;;;;;;;2.20;2.00;;;;;;;35.52;22.21;98617.31;6923592;28;20247;-77
2022/07/31 15:06:59;;;;;;;2.60;1.93;;;;;;;35.05;22.67;98619.56;6947602;28;20352;-77
2022/07/31 15:10:21;;;;;;;1.90;1.80;;;;;;;34.99;23.19;98615.44;6946386;28;20646;-76
2022/07/31 15:13:42;;;;;;;2.03;1.83;;;;;;;35.50;22.17;98606.47;6947359;28;20711;-77
2022/07/31 15:17:05;;;;;;;4.20;1.70;;;;;;;36.20;21.21;98618.16;6933402;28;20227;-77
2022/07/31 15:20:27;;;;;;;2.00;1.80;;;;;;;36.15;21.18;98619.28;6933653;28;20211;-77
2022/07/31 15:23:48;;;;;;;2.40;1.70;;;;;;;36.03;21.62;98607.44;6946802;28;20582;-77
2022/07/31 15:27:10;;;;;;;3.00;1.90;;;;;;;35.69;22.67;98611.22;6946137;28;20227;-77
2022/07/31 15:30:32;;;;;;;2.30;1.60;;;;;;;35.66;22.76;98609.97;6930244;28;20218;-78
2022/07/31 15:33:55;;;;;;;1.87;1.73;;;;;;;35.49;22.75;98613.25;6940477;28;20779;-78
2022/07/31 15:37:16;;;;;;;4.17;2.13;;;;;;;36.07;22.84;98609.09;6926518;28;20243;-77
2022/07/31 15:40:38;;;;;;;2.90;2.40;;;;;;;36.16;21.83;98575.97;6930164;28;20213;-78
2022/07/31 15:43:59;;;;;;;4.50;2.10;;;;;;;36.05;22.25;98600.25;6955793;28;20234;-77
2022/07/31 15:47:21;;;;;;;1.67;1.57;;;;;;;35.86;22.04;98589.13;6952337;28;20304;-78
2022/07/31 15:50:44;;;;;;;1.73;1.47;;;;;;;35.61;22.30;98589.84;6939195;28;20224;-78
2022/07/31 15:54:05;;;;;;;1.87;1.70;;;;;;;35.65;22.83;98591.50;6944831;28;20222;-77